sensor_id;sensor_type;location;lat;lon;timestamp;P1;durP1;ratioP1;P2;durP2;ratioP2
22103;SDS011;11218;48.886;9.426;2022-08-18T00:01:05;59.67;;;51.53;;
22103;SDS011;11218;48.886;9.426;2022-08-18T00:03:33;73.43;;;58.35;;
22103;SDS011;11218;48.886;9.426;2022-08-18T00:06:21;56.08;;;50.03;;
22103;SDS011;11218;48.886;9.426;2022-08-18T00:08:53;55.78;;;46.30;;
22103;SDS011;11218;48.886;9.426;2022-08-18T00:11:23;61.58;;;47.28;;
22103;SDS011;11218;48.886;9.426;2022-08-18T00:13:50;54.08;;;45.33;;
22103;SDS011;11218;48.886;9.426;2022-08-18T00:16:19;51.15;;;43.42;;
22103;SDS011;11218;48.886;9.426;2022-08-18T00:18:47;53.38;;;47.38;;
22103;SDS011;11218;48.886;9.426;2022-08-18T00:21:16;65.00;;;53.08;;
22103;SDS011;11218;48.886;9.426;2022-08-18T00:23:44;88.03;;;62.03;;
22103;SDS011;11218;48.886;9.426;2022-08-18T00:26:13;60.15;;;44.75;;
22103;SDS011;11218;48.886;9.426;2022-08-18T00:28:42;62.35;;;47.20;;
22103;SDS011;11218;48.886;9.426;2022-08-18T00:31:10;46.47;;;39.10;;
22103;SDS011;11218;48.886;9.426;2022-08-18T00:33:38;57.72;;;41.35;;
22103;SDS011;11218;48.886;9.426;2022-08-18T00:36:06;67.60;;;45.95;;
22103;SDS011;11218;48.886;9.426;2022-08-18T00:38:34;43.95;;;28.65;;
22103;SDS011;11218;48.886;9.426;2022-08-18T00:41:03;38.22;;;29.65;;
22103;SDS011;11218;48.886;9.426;2022-08-18T00:43:33;93.57;;;47.00;;
22103;SDS011;11218;48.886;9.426;2022-08-18T00:46:06;44.20;;;29.65;;
22103;SDS011;11218;48.886;9.426;2022-08-18T00:48:36;43.05;;;25.05;;
22103;SDS011;11218;48.886;9.426;2022-08-18T00:51:06;32.65;;;23.48;;
22103;SDS011;11218;48.886;9.426;2022-08-18T00:53:37;47.28;;;29.95;;
22103;SDS011;11218;48.886;9.426;2022-08-18T00:56:13;42.00;;;28.75;;
22103;SDS011;11218;48.886;9.426;2022-08-18T00:58:44;36.17;;;24.52;;
22103;SDS011;11218;48.886;9.426;2022-08-18T01:01:17;41.83;;;21.55;;
22103;SDS011;11218;48.886;9.426;2022-08-18T01:03:49;45.63;;;26.35;;
22103;SDS011;11218;48.886;9.426;2022-08-18T01:06:23;33.50;;;24.17;;
22103;SDS011;11218;48.886;9.426;2022-08-18T01:08:54;39.10;;;25.23;;
22103;SDS011;11218;48.886;9.426;2022-08-18T01:11:22;28.77;;;22.33;;
22103;SDS011;11218;48.886;9.426;2022-08-18T01:13:50;42.17;;;24.42;;
22103;SDS011;11218;48.886;9.426;2022-08-18T01:16:20;27.67;;;15.85;;
22103;SDS011;11218;48.886;9.426;2022-08-18T01:19:22;36.42;;;20.75;;
22103;SDS011;11218;48.886;9.426;2022-08-18T01:22:07;52.35;;;25.73;;
22103;SDS011;11218;48.886;9.426;2022-08-18T01:24:41;44.88;;;25.83;;
22103;SDS011;11218;48.886;9.426;2022-08-18T01:27:26;50.65;;;29.63;;
22103;SDS011;11218;48.886;9.426;2022-08-18T01:30:00;55.25;;;38.70;;
22103;SDS011;11218;48.886;9.426;2022-08-18T01:32:31;60.65;;;38.65;;
22103;SDS011;11218;48.886;9.426;2022-08-18T01:34:59;49.58;;;33.70;;
22103;SDS011;11218;48.886;9.426;2022-08-18T01:37:27;48.05;;;37.05;;
22103;SDS011;11218;48.886;9.426;2022-08-18T01:39:57;55.47;;;42.97;;
22103;SDS011;11218;48.886;9.426;2022-08-18T01:42:45;71.22;;;50.90;;
22103;SDS011;11218;48.886;9.426;2022-08-18T01:45:14;54.40;;;31.25;;
22103;SDS011;11218;48.886;9.426;2022-08-18T01:47:43;42.65;;;29.45;;
22103;SDS011;11218;48.886;9.426;2022-08-18T01:50:13;60.63;;;40.90;;
22103;SDS011;11218;48.886;9.426;2022-08-18T01:52:41;65.85;;;53.13;;
22103;SDS011;11218;48.886;9.426;2022-08-18T01:55:11;69.20;;;52.38;;
22103;SDS011;11218;48.886;9.426;2022-08-18T01:57:40;70.90;;;48.75;;
22103;SDS011;11218;48.886;9.426;2022-08-18T02:00:11;66.72;;;50.65;;
22103;SDS011;11218;48.886;9.426;2022-08-18T02:02:41;57.88;;;42.90;;
22103;SDS011;11218;48.886;9.426;2022-08-18T02:05:11;64.85;;;47.05;;
22103;SDS011;11218;48.886;9.426;2022-08-18T02:07:42;47.97;;;42.05;;
22103;SDS011;11218;48.886;9.426;2022-08-18T02:10:11;53.45;;;39.33;;
22103;SDS011;11218;48.886;9.426;2022-08-18T02:12:42;44.40;;;33.70;;
22103;SDS011;11218;48.886;9.426;2022-08-18T02:15:10;52.90;;;41.80;;
22103;SDS011;11218;48.886;9.426;2022-08-18T02:17:39;53.58;;;46.35;;
22103;SDS011;11218;48.886;9.426;2022-08-18T02:20:09;55.15;;;43.58;;
22103;SDS011;11218;48.886;9.426;2022-08-18T02:22:39;57.17;;;46.45;;
22103;SDS011;11218;48.886;9.426;2022-08-18T02:25:09;45.00;;;35.05;;
22103;SDS011;11218;48.886;9.426;2022-08-18T02:27:40;51.53;;;43.53;;
22103;SDS011;11218;48.886;9.426;2022-08-18T02:30:09;40.40;;;27.48;;
22103;SDS011;11218;48.886;9.426;2022-08-18T02:32:39;25.60;;;21.75;;
22103;SDS011;11218;48.886;9.426;2022-08-18T02:35:07;42.75;;;25.17;;
22103;SDS011;11218;48.886;9.426;2022-08-18T02:37:37;28.45;;;19.15;;
22103;SDS011;11218;48.886;9.426;2022-08-18T02:40:08;36.85;;;21.50;;
22103;SDS011;11218;48.886;9.426;2022-08-18T02:42:41;31.42;;;19.88;;
22103;SDS011;11218;48.886;9.426;2022-08-18T02:45:10;40.88;;;23.80;;
22103;SDS011;11218;48.886;9.426;2022-08-18T02:47:40;40.22;;;24.23;;
22103;SDS011;11218;48.886;9.426;2022-08-18T02:50:09;43.10;;;27.42;;
22103;SDS011;11218;48.886;9.426;2022-08-18T02:52:37;33.55;;;22.45;;
22103;SDS011;11218;48.886;9.426;2022-08-18T02:55:06;39.28;;;26.23;;
22103;SDS011;11218;48.886;9.426;2022-08-18T02:57:34;44.03;;;26.83;;
22103;SDS011;11218;48.886;9.426;2022-08-18T03:00:04;41.55;;;26.45;;
22103;SDS011;11218;48.886;9.426;2022-08-18T03:02:36;39.70;;;25.30;;
22103;SDS011;11218;48.886;9.426;2022-08-18T03:05:04;41.72;;;26.08;;
22103;SDS011;11218;48.886;9.426;2022-08-18T03:07:40;25.77;;;20.15;;
22103;SDS011;11218;48.886;9.426;2022-08-18T03:10:08;38.28;;;26.55;;
22103;SDS011;11218;48.886;9.426;2022-08-18T03:12:56;53.30;;;34.95;;
22103;SDS011;11218;48.886;9.426;2022-08-18T03:15:25;30.55;;;22.10;;
22103;SDS011;11218;48.886;9.426;2022-08-18T03:17:54;40.03;;;23.25;;
22103;SDS011;11218;48.886;9.426;2022-08-18T03:20:21;47.13;;;26.55;;
22103;SDS011;11218;48.886;9.426;2022-08-18T03:22:56;62.35;;;33.95;;
22103;SDS011;11218;48.886;9.426;2022-08-18T03:25:31;44.60;;;31.52;;
22103;SDS011;11218;48.886;9.426;2022-08-18T03:27:59;43.42;;;31.73;;
22103;SDS011;11218;48.886;9.426;2022-08-18T03:30:30;42.53;;;27.88;;
22103;SDS011;11218;48.886;9.426;2022-08-18T03:32:58;42.42;;;22.50;;
22103;SDS011;11218;48.886;9.426;2022-08-18T03:35:26;43.10;;;26.00;;
22103;SDS011;11218;48.886;9.426;2022-08-18T03:37:57;54.22;;;33.28;;
22103;SDS011;11218;48.886;9.426;2022-08-18T03:40:25;44.15;;;25.75;;
22103;SDS011;11218;48.886;9.426;2022-08-18T03:42:53;29.42;;;20.58;;
22103;SDS011;11218;48.886;9.426;2022-08-18T03:45:21;48.00;;;26.23;;
22103;SDS011;11218;48.886;9.426;2022-08-18T03:47:51;47.67;;;26.05;;
22103;SDS011;11218;48.886;9.426;2022-08-18T03:50:19;30.77;;;21.60;;
22103;SDS011;11218;48.886;9.426;2022-08-18T03:52:50;38.50;;;20.83;;
22103;SDS011;11218;48.886;9.426;2022-08-18T03:55:18;45.10;;;27.25;;
22103;SDS011;11218;48.886;9.426;2022-08-18T03:57:46;42.65;;;28.42;;
22103;SDS011;11218;48.886;9.426;2022-08-18T04:00:18;57.03;;;34.28;;
22103;SDS011;11218;48.886;9.426;2022-08-18T04:02:47;48.67;;;30.08;;
22103;SDS011;11218;48.886;9.426;2022-08-18T04:05:16;46.10;;;28.05;;
22103;SDS011;11218;48.886;9.426;2022-08-18T04:07:44;29.60;;;24.13;;
22103;SDS011;11218;48.886;9.426;2022-08-18T04:10:13;46.22;;;28.05;;
22103;SDS011;11218;48.886;9.426;2022-08-18T04:12:45;44.22;;;25.27;;
22103;SDS011;11218;48.886;9.426;2022-08-18T04:15:13;43.80;;;23.55;;
22103;SDS011;11218;48.886;9.426;2022-08-18T04:17:41;30.85;;;16.40;;
22103;SDS011;11218;48.886;9.426;2022-08-18T04:20:30;33.22;;;17.45;;
22103;SDS011;11218;48.886;9.426;2022-08-18T04:22:58;38.78;;;18.70;;
22103;SDS011;11218;48.886;9.426;2022-08-18T04:25:26;42.83;;;22.10;;
22103;SDS011;11218;48.886;9.426;2022-08-18T04:27:58;29.70;;;18.05;;
22103;SDS011;11218;48.886;9.426;2022-08-18T04:30:29;38.13;;;21.92;;
22103;SDS011;11218;48.886;9.426;2022-08-18T04:32:57;38.92;;;23.13;;
22103;SDS011;11218;48.886;9.426;2022-08-18T04:35:28;40.42;;;23.80;;
22103;SDS011;11218;48.886;9.426;2022-08-18T04:37:58;48.42;;;26.70;;
22103;SDS011;11218;48.886;9.426;2022-08-18T04:40:26;40.53;;;23.73;;
22103;SDS011;11218;48.886;9.426;2022-08-18T04:42:55;40.90;;;23.00;;
22103;SDS011;11218;48.886;9.426;2022-08-18T04:45:23;37.53;;;21.80;;
22103;SDS011;11218;48.886;9.426;2022-08-18T04:47:51;37.70;;;18.42;;
22103;SDS011;11218;48.886;9.426;2022-08-18T04:50:19;41.50;;;21.17;;
22103;SDS011;11218;48.886;9.426;2022-08-18T04:52:48;31.08;;;16.10;;
22103;SDS011;11218;48.886;9.426;2022-08-18T04:55:34;46.45;;;21.05;;
22103;SDS011;11218;48.886;9.426;2022-08-18T04:58:01;24.73;;;13.98;;
22103;SDS011;11218;48.886;9.426;2022-08-18T05:00:30;27.15;;;15.02;;
22103;SDS011;11218;48.886;9.426;2022-08-18T05:02:57;45.40;;;21.33;;
22103;SDS011;11218;48.886;9.426;2022-08-18T05:05:26;34.60;;;19.02;;
22103;SDS011;11218;48.886;9.426;2022-08-18T05:07:55;27.80;;;18.55;;
22103;SDS011;11218;48.886;9.426;2022-08-18T05:10:23;39.25;;;22.58;;
22103;SDS011;11218;48.886;9.426;2022-08-18T05:12:51;27.13;;;17.42;;
22103;SDS011;11218;48.886;9.426;2022-08-18T05:15:19;48.72;;;22.92;;
22103;SDS011;11218;48.886;9.426;2022-08-18T05:17:47;43.05;;;19.98;;
22103;SDS011;11218;48.886;9.426;2022-08-18T05:20:16;62.20;;;24.50;;
22103;SDS011;11218;48.886;9.426;2022-08-18T05:22:45;34.00;;;18.13;;
22103;SDS011;11218;48.886;9.426;2022-08-18T05:25:14;31.55;;;15.85;;
22103;SDS011;11218;48.886;9.426;2022-08-18T05:27:42;32.30;;;16.52;;
22103;SDS011;11218;48.886;9.426;2022-08-18T05:30:11;36.03;;;17.95;;
22103;SDS011;11218;48.886;9.426;2022-08-18T05:32:41;33.38;;;15.65;;
22103;SDS011;11218;48.886;9.426;2022-08-18T05:35:16;33.03;;;16.70;;
22103;SDS011;11218;48.886;9.426;2022-08-18T05:37:51;30.17;;;14.88;;
22103;SDS011;11218;48.886;9.426;2022-08-18T05:40:28;32.92;;;15.23;;
22103;SDS011;11218;48.886;9.426;2022-08-18T05:42:57;42.85;;;16.25;;
22103;SDS011;11218;48.886;9.426;2022-08-18T05:45:25;35.85;;;15.82;;
22103;SDS011;11218;48.886;9.426;2022-08-18T05:47:55;38.28;;;16.77;;
22103;SDS011;11218;48.886;9.426;2022-08-18T05:50:24;38.15;;;17.52;;
22103;SDS011;11218;48.886;9.426;2022-08-18T05:52:55;48.00;;;19.25;;
22103;SDS011;11218;48.886;9.426;2022-08-18T05:55:27;68.53;;;23.30;;
22103;SDS011;11218;48.886;9.426;2022-08-18T05:58:16;27.98;;;14.00;;
22103;SDS011;11218;48.886;9.426;2022-08-18T06:00:47;29.38;;;13.65;;
22103;SDS011;11218;48.886;9.426;2022-08-18T06:03:25;28.90;;;14.40;;
22103;SDS011;11218;48.886;9.426;2022-08-18T06:06:10;30.25;;;14.10;;
22103;SDS011;11218;48.886;9.426;2022-08-18T06:08:42;35.88;;;16.08;;
22103;SDS011;11218;48.886;9.426;2022-08-18T06:11:14;30.77;;;14.23;;
22103;SDS011;11218;48.886;9.426;2022-08-18T06:13:48;41.38;;;17.23;;
22103;SDS011;11218;48.886;9.426;2022-08-18T06:16:26;30.73;;;16.15;;
22103;SDS011;11218;48.886;9.426;2022-08-18T06:19:04;25.38;;;15.70;;
22103;SDS011;11218;48.886;9.426;2022-08-18T06:21:38;34.92;;;17.30;;
22103;SDS011;11218;48.886;9.426;2022-08-18T06:24:15;44.90;;;21.38;;
22103;SDS011;11218;48.886;9.426;2022-08-18T06:26:49;32.80;;;17.77;;
22103;SDS011;11218;48.886;9.426;2022-08-18T06:29:27;36.88;;;21.15;;
22103;SDS011;11218;48.886;9.426;2022-08-18T06:32:04;40.63;;;21.30;;
22103;SDS011;11218;48.886;9.426;2022-08-18T06:34:38;37.13;;;20.15;;
22103;SDS011;11218;48.886;9.426;2022-08-18T06:37:15;32.55;;;18.15;;
22103;SDS011;11218;48.886;9.426;2022-08-18T06:39:47;35.80;;;19.08;;
22103;SDS011;11218;48.886;9.426;2022-08-18T06:42:19;28.13;;;16.38;;
22103;SDS011;11218;48.886;9.426;2022-08-18T06:44:52;40.45;;;19.95;;
22103;SDS011;11218;48.886;9.426;2022-08-18T06:47:25;22.05;;;14.68;;
22103;SDS011;11218;48.886;9.426;2022-08-18T06:50:03;36.47;;;18.08;;
22103;SDS011;11218;48.886;9.426;2022-08-18T06:52:34;29.27;;;17.88;;
22103;SDS011;11218;48.886;9.426;2022-08-18T06:55:03;31.20;;;19.25;;
22103;SDS011;11218;48.886;9.426;2022-08-18T06:57:36;27.13;;;19.25;;
22103;SDS011;11218;48.886;9.426;2022-08-18T07:00:07;42.78;;;20.25;;
22103;SDS011;11218;48.886;9.426;2022-08-18T07:02:41;35.08;;;19.77;;
22103;SDS011;11218;48.886;9.426;2022-08-18T07:05:20;44.50;;;22.23;;
22103;SDS011;11218;48.886;9.426;2022-08-18T07:08:04;37.85;;;22.10;;
22103;SDS011;11218;48.886;9.426;2022-08-18T07:10:37;36.15;;;20.77;;
22103;SDS011;11218;48.886;9.426;2022-08-18T07:13:12;37.40;;;22.05;;
22103;SDS011;11218;48.886;9.426;2022-08-18T07:15:46;33.45;;;21.20;;
22103;SDS011;11218;48.886;9.426;2022-08-18T07:18:20;33.05;;;19.75;;
22103;SDS011;11218;48.886;9.426;2022-08-18T07:20:54;37.35;;;20.60;;
22103;SDS011;11218;48.886;9.426;2022-08-18T07:23:25;43.05;;;22.63;;
22103;SDS011;11218;48.886;9.426;2022-08-18T07:26:00;21.13;;;16.40;;
22103;SDS011;11218;48.886;9.426;2022-08-18T07:28:33;31.70;;;19.83;;
22103;SDS011;11218;48.886;9.426;2022-08-18T07:31:07;30.33;;;18.90;;
22103;SDS011;11218;48.886;9.426;2022-08-18T07:33:43;34.30;;;18.75;;
22103;SDS011;11218;48.886;9.426;2022-08-18T07:36:16;34.28;;;18.13;;
22103;SDS011;11218;48.886;9.426;2022-08-18T07:38:49;32.67;;;18.63;;
22103;SDS011;11218;48.886;9.426;2022-08-18T07:41:20;47.20;;;22.98;;
22103;SDS011;11218;48.886;9.426;2022-08-18T07:43:56;38.90;;;25.25;;
22103;SDS011;11218;48.886;9.426;2022-08-18T07:46:48;39.10;;;25.98;;
22103;SDS011;11218;48.886;9.426;2022-08-18T07:49:22;37.72;;;22.75;;
22103;SDS011;11218;48.886;9.426;2022-08-18T07:51:53;40.97;;;24.45;;
22103;SDS011;11218;48.886;9.426;2022-08-18T07:54:28;39.22;;;22.40;;
22103;SDS011;11218;48.886;9.426;2022-08-18T07:57:22;37.78;;;24.77;;
22103;SDS011;11218;48.886;9.426;2022-08-18T08:00:10;48.28;;;26.35;;
22103;SDS011;11218;48.886;9.426;2022-08-18T08:03:05;31.17;;;19.20;;
22103;SDS011;11218;48.886;9.426;2022-08-18T08:05:44;31.20;;;17.23;;
22103;SDS011;11218;48.886;9.426;2022-08-18T08:08:19;54.75;;;24.55;;
22103;SDS011;11218;48.886;9.426;2022-08-18T08:10:54;41.63;;;20.42;;
22103;SDS011;11218;48.886;9.426;2022-08-18T08:13:32;30.90;;;18.05;;
22103;SDS011;11218;48.886;9.426;2022-08-18T08:16:27;33.67;;;18.00;;
22103;SDS011;11218;48.886;9.426;2022-08-18T08:19:06;27.48;;;17.85;;
22103;SDS011;11218;48.886;9.426;2022-08-18T08:22:07;24.98;;;16.30;;
22103;SDS011;11218;48.886;9.426;2022-08-18T08:24:40;28.35;;;16.38;;
22103;SDS011;11218;48.886;9.426;2022-08-18T08:27:14;34.47;;;17.48;;
22103;SDS011;11218;48.886;9.426;2022-08-18T08:29:47;40.55;;;17.23;;
22103;SDS011;11218;48.886;9.426;2022-08-18T08:32:23;26.67;;;15.50;;
22103;SDS011;11218;48.886;9.426;2022-08-18T08:34:56;35.40;;;13.88;;
22103;SDS011;11218;48.886;9.426;2022-08-18T08:37:28;33.97;;;17.30;;
22103;SDS011;11218;48.886;9.426;2022-08-18T08:40:04;30.88;;;15.30;;
22103;SDS011;11218;48.886;9.426;2022-08-18T08:42:53;41.38;;;17.27;;
22103;SDS011;11218;48.886;9.426;2022-08-18T08:45:25;30.75;;;15.35;;
22103;SDS011;11218;48.886;9.426;2022-08-18T08:47:59;30.92;;;15.52;;
22103;SDS011;11218;48.886;9.426;2022-08-18T08:50:37;27.48;;;14.70;;
22103;SDS011;11218;48.886;9.426;2022-08-18T08:53:10;44.05;;;18.70;;
22103;SDS011;11218;48.886;9.426;2022-08-18T08:55:44;34.28;;;15.60;;
22103;SDS011;11218;48.886;9.426;2022-08-18T08:58:16;39.00;;;17.90;;
22103;SDS011;11218;48.886;9.426;2022-08-18T09:00:49;21.25;;;13.10;;
22103;SDS011;11218;48.886;9.426;2022-08-18T09:06:19;29.33;;;15.90;;
22103;SDS011;11218;48.886;9.426;2022-08-18T09:09:00;24.67;;;13.95;;
22103;SDS011;11218;48.886;9.426;2022-08-18T09:11:47;32.97;;;15.82;;
22103;SDS011;11218;48.886;9.426;2022-08-18T09:14:37;24.67;;;14.00;;
22103;SDS011;11218;48.886;9.426;2022-08-18T09:17:25;33.28;;;14.88;;
22103;SDS011;11218;48.886;9.426;2022-08-18T09:20:23;34.53;;;15.57;;
22103;SDS011;11218;48.886;9.426;2022-08-18T09:23:00;32.83;;;15.07;;
22103;SDS011;11218;48.886;9.426;2022-08-18T09:25:33;28.73;;;15.18;;
22103;SDS011;11218;48.886;9.426;2022-08-18T09:28:12;37.80;;;16.70;;
22103;SDS011;11218;48.886;9.426;2022-08-18T09:30:44;28.60;;;15.38;;
22103;SDS011;11218;48.886;9.426;2022-08-18T09:33:23;32.97;;;16.50;;
22103;SDS011;11218;48.886;9.426;2022-08-18T10:00:15;53.05;;;20.27;;
22103;SDS011;11218;48.886;9.426;2022-08-18T10:09:00;42.33;;;17.23;;
22103;SDS011;11218;48.886;9.426;2022-08-18T10:11:49;59.83;;;21.55;;
22103;SDS011;11218;48.886;9.426;2022-08-18T10:14:44;32.42;;;16.83;;
22103;SDS011;11218;48.886;9.426;2022-08-18T10:17:26;37.45;;;16.88;;
22103;SDS011;11218;48.886;9.426;2022-08-18T10:20:19;44.60;;;18.55;;
22103;SDS011;11218;48.886;9.426;2022-08-18T10:23:08;74.30;;;25.95;;
22103;SDS011;11218;48.886;9.426;2022-08-18T10:25:38;34.53;;;16.60;;
22103;SDS011;11218;48.886;9.426;2022-08-18T10:28:08;45.65;;;20.30;;
22103;SDS011;11218;48.886;9.426;2022-08-18T10:33:54;41.60;;;18.55;;
22103;SDS011;11218;48.886;9.426;2022-08-18T10:36:45;39.78;;;18.80;;
22103;SDS011;11218;48.886;9.426;2022-08-18T10:39:16;52.30;;;20.35;;
22103;SDS011;11218;48.886;9.426;2022-08-18T10:41:51;37.80;;;19.85;;
22103;SDS011;11218;48.886;9.426;2022-08-18T10:44:24;53.08;;;22.70;;
22103;SDS011;11218;48.886;9.426;2022-08-18T10:46:57;58.28;;;23.33;;
22103;SDS011;11218;48.886;9.426;2022-08-18T10:49:37;34.72;;;18.70;;
22103;SDS011;11218;48.886;9.426;2022-08-18T10:52:22;36.78;;;19.20;;
22103;SDS011;11218;48.886;9.426;2022-08-18T10:55:35;40.92;;;20.00;;
22103;SDS011;11218;48.886;9.426;2022-08-18T10:58:27;61.97;;;24.65;;
22103;SDS011;11218;48.886;9.426;2022-08-18T11:01:04;27.90;;;16.73;;
22103;SDS011;11218;48.886;9.426;2022-08-18T11:03:42;53.95;;;22.95;;
22103;SDS011;11218;48.886;9.426;2022-08-18T11:06:39;37.83;;;20.10;;
22103;SDS011;11218;48.886;9.426;2022-08-18T11:09:09;35.33;;;18.23;;
22103;SDS011;11218;48.886;9.426;2022-08-18T11:11:39;45.08;;;20.42;;
22103;SDS011;11218;48.886;9.426;2022-08-18T11:17:55;50.83;;;22.75;;
22103;SDS011;11218;48.886;9.426;2022-08-18T11:20:31;40.63;;;21.88;;
22103;SDS011;11218;48.886;9.426;2022-08-18T11:23:01;48.58;;;23.90;;
22103;SDS011;11218;48.886;9.426;2022-08-18T11:25:30;33.40;;;20.08;;
22103;SDS011;11218;48.886;9.426;2022-08-18T11:28:00;44.90;;;24.70;;
22103;SDS011;11218;48.886;9.426;2022-08-18T11:30:29;58.20;;;29.63;;
22103;SDS011;11218;48.886;9.426;2022-08-18T11:33:01;57.13;;;26.83;;
22103;SDS011;11218;48.886;9.426;2022-08-18T11:35:31;51.85;;;25.92;;
22103;SDS011;11218;48.886;9.426;2022-08-18T11:38:02;45.22;;;24.23;;
22103;SDS011;11218;48.886;9.426;2022-08-18T11:40:38;48.80;;;27.42;;
22103;SDS011;11218;48.886;9.426;2022-08-18T11:43:27;49.00;;;28.70;;
22103;SDS011;11218;48.886;9.426;2022-08-18T11:46:21;48.00;;;28.15;;
22103;SDS011;11218;48.886;9.426;2022-08-18T11:48:57;42.30;;;28.13;;
22103;SDS011;11218;48.886;9.426;2022-08-18T11:51:32;41.70;;;28.90;;
22103;SDS011;11218;48.886;9.426;2022-08-18T11:54:00;51.97;;;34.22;;
22103;SDS011;11218;48.886;9.426;2022-08-18T11:56:31;44.78;;;32.60;;
22103;SDS011;11218;48.886;9.426;2022-08-18T11:59:04;43.95;;;30.17;;
22103;SDS011;11218;48.886;9.426;2022-08-18T12:01:34;49.22;;;32.13;;
22103;SDS011;11218;48.886;9.426;2022-08-18T12:04:15;47.28;;;34.17;;
22103;SDS011;11218;48.886;9.426;2022-08-18T12:07:00;59.15;;;39.17;;
22103;SDS011;11218;48.886;9.426;2022-08-18T12:09:37;55.97;;;39.25;;
22103;SDS011;11218;48.886;9.426;2022-08-18T12:12:27;50.47;;;38.63;;
22103;SDS011;11218;48.886;9.426;2022-08-18T12:14:56;65.32;;;46.22;;
22103;SDS011;11218;48.886;9.426;2022-08-18T12:17:49;58.42;;;48.92;;
22103;SDS011;11218;48.886;9.426;2022-08-18T12:20:18;84.78;;;58.38;;
22103;SDS011;11218;48.886;9.426;2022-08-18T12:22:48;54.85;;;46.67;;
22103;SDS011;11218;48.886;9.426;2022-08-18T12:25:18;63.63;;;47.35;;
22103;SDS011;11218;48.886;9.426;2022-08-18T12:27:50;52.80;;;47.13;;
22103;SDS011;11218;48.886;9.426;2022-08-18T12:30:18;70.15;;;52.88;;
22103;SDS011;11218;48.886;9.426;2022-08-18T12:32:46;79.25;;;58.88;;
22103;SDS011;11218;48.886;9.426;2022-08-18T12:35:26;74.15;;;57.90;;
22103;SDS011;11218;48.886;9.426;2022-08-18T12:37:56;85.57;;;64.65;;
22103;SDS011;11218;48.886;9.426;2022-08-18T12:40:36;72.93;;;63.38;;
22103;SDS011;11218;48.886;9.426;2022-08-18T12:43:05;117.10;;;82.03;;
22103;SDS011;11218;48.886;9.426;2022-08-18T12:45:33;97.90;;;73.63;;
22103;SDS011;11218;48.886;9.426;2022-08-18T12:48:03;88.75;;;76.25;;
22103;SDS011;11218;48.886;9.426;2022-08-18T12:50:32;117.72;;;82.10;;
22103;SDS011;11218;48.886;9.426;2022-08-18T12:53:21;126.32;;;84.55;;
22103;SDS011;11218;48.886;9.426;2022-08-18T12:56:03;86.53;;;72.68;;
22103;SDS011;11218;48.886;9.426;2022-08-18T12:58:34;107.00;;;79.35;;
22103;SDS011;11218;48.886;9.426;2022-08-18T13:01:01;59.92;;;53.22;;
22103;SDS011;11218;48.886;9.426;2022-08-18T13:03:29;67.05;;;57.67;;
22103;SDS011;11218;48.886;9.426;2022-08-18T13:06:02;71.13;;;54.65;;
22103;SDS011;11218;48.886;9.426;2022-08-18T13:08:32;65.65;;;51.97;;
22103;SDS011;11218;48.886;9.426;2022-08-18T13:11:15;59.15;;;48.45;;
22103;SDS011;11218;48.886;9.426;2022-08-18T13:13:50;56.47;;;46.33;;
22103;SDS011;11218;48.886;9.426;2022-08-18T13:16:22;54.30;;;40.70;;
22103;SDS011;11218;48.886;9.426;2022-08-18T13:19:11;45.85;;;36.28;;
22103;SDS011;11218;48.886;9.426;2022-08-18T13:21:40;48.28;;;40.67;;
22103;SDS011;11218;48.886;9.426;2022-08-18T13:24:09;63.33;;;46.63;;
22103;SDS011;11218;48.886;9.426;2022-08-18T13:26:39;49.88;;;40.67;;
22103;SDS011;11218;48.886;9.426;2022-08-18T13:29:12;65.43;;;46.55;;
22103;SDS011;11218;48.886;9.426;2022-08-18T13:31:43;65.93;;;53.10;;
22103;SDS011;11218;48.886;9.426;2022-08-18T13:34:23;61.00;;;51.97;;
22103;SDS011;11218;48.886;9.426;2022-08-18T13:36:55;68.05;;;50.75;;
22103;SDS011;11218;48.886;9.426;2022-08-18T13:39:25;67.00;;;51.75;;
22103;SDS011;11218;48.886;9.426;2022-08-18T13:42:00;69.07;;;51.28;;
22103;SDS011;11218;48.886;9.426;2022-08-18T13:44:50;60.70;;;48.22;;
22103;SDS011;11218;48.886;9.426;2022-08-18T13:47:18;58.25;;;44.15;;
22103;SDS011;11218;48.886;9.426;2022-08-18T13:49:47;52.60;;;45.22;;
22103;SDS011;11218;48.886;9.426;2022-08-18T13:52:24;55.50;;;41.58;;
22103;SDS011;11218;48.886;9.426;2022-08-18T13:55:03;44.47;;;37.45;;
22103;SDS011;11218;48.886;9.426;2022-08-18T13:57:34;47.83;;;42.78;;
22103;SDS011;11218;48.886;9.426;2022-08-18T14:00:03;52.67;;;40.75;;
22103;SDS011;11218;48.886;9.426;2022-08-18T14:02:37;50.70;;;42.20;;
22103;SDS011;11218;48.886;9.426;2022-08-18T14:05:07;59.47;;;46.65;;
22103;SDS011;11218;48.886;9.426;2022-08-18T14:07:36;52.58;;;42.17;;
22103;SDS011;11218;48.886;9.426;2022-08-18T14:10:08;51.25;;;41.60;;
22103;SDS011;11218;48.886;9.426;2022-08-18T14:12:38;44.50;;;39.60;;
22103;SDS011;11218;48.886;9.426;2022-08-18T14:15:09;52.75;;;44.53;;
22103;SDS011;11218;48.886;9.426;2022-08-18T14:17:39;65.50;;;44.35;;
22103;SDS011;11218;48.886;9.426;2022-08-18T14:20:08;63.60;;;44.25;;
22103;SDS011;11218;48.886;9.426;2022-08-18T14:22:55;72.18;;;46.88;;
22103;SDS011;11218;48.886;9.426;2022-08-18T14:25:51;56.28;;;43.45;;
22103;SDS011;11218;48.886;9.426;2022-08-18T14:28:37;61.33;;;41.35;;
22103;SDS011;11218;48.886;9.426;2022-08-18T14:31:06;48.40;;;36.08;;
22103;SDS011;11218;48.886;9.426;2022-08-18T14:33:34;63.38;;;46.60;;
22103;SDS011;11218;48.886;9.426;2022-08-18T14:36:17;56.60;;;42.35;;
22103;SDS011;11218;48.886;9.426;2022-08-18T14:38:55;58.60;;;38.08;;
22103;SDS011;11218;48.886;9.426;2022-08-18T14:41:25;51.78;;;36.40;;
22103;SDS011;11218;48.886;9.426;2022-08-18T14:43:54;49.80;;;37.45;;
22103;SDS011;11218;48.886;9.426;2022-08-18T14:46:39;63.28;;;43.75;;
22103;SDS011;11218;48.886;9.426;2022-08-18T14:49:17;50.63;;;40.22;;
22103;SDS011;11218;48.886;9.426;2022-08-18T14:51:55;65.22;;;44.08;;
22103;SDS011;11218;48.886;9.426;2022-08-18T14:54:23;58.13;;;46.08;;
22103;SDS011;11218;48.886;9.426;2022-08-18T14:56:55;64.30;;;50.97;;
22103;SDS011;11218;48.886;9.426;2022-08-18T14:59:23;54.17;;;46.22;;
22103;SDS011;11218;48.886;9.426;2022-08-18T15:01:53;65.40;;;47.03;;
22103;SDS011;11218;48.886;9.426;2022-08-18T15:04:22;70.53;;;53.25;;
22103;SDS011;11218;48.886;9.426;2022-08-18T15:06:49;62.25;;;46.08;;
22103;SDS011;11218;48.886;9.426;2022-08-18T15:09:23;65.03;;;50.10;;
22103;SDS011;11218;48.886;9.426;2022-08-18T15:11:52;77.50;;;51.05;;
22103;SDS011;11218;48.886;9.426;2022-08-18T15:14:23;54.97;;;41.65;;
22103;SDS011;11218;48.886;9.426;2022-08-18T15:16:59;59.25;;;42.92;;
22103;SDS011;11218;48.886;9.426;2022-08-18T15:19:28;60.85;;;49.08;;
22103;SDS011;11218;48.886;9.426;2022-08-18T15:22:16;42.47;;;35.78;;
22103;SDS011;11218;48.886;9.426;2022-08-18T15:25:02;44.75;;;34.15;;
22103;SDS011;11218;48.886;9.426;2022-08-18T15:27:49;56.67;;;38.72;;
22103;SDS011;11218;48.886;9.426;2022-08-18T15:30:19;54.88;;;39.50;;
22103;SDS011;11218;48.886;9.426;2022-08-18T15:32:48;56.20;;;38.83;;
22103;SDS011;11218;48.886;9.426;2022-08-18T15:35:17;58.95;;;38.80;;
22103;SDS011;11218;48.886;9.426;2022-08-18T15:37:47;67.72;;;39.92;;
22103;SDS011;11218;48.886;9.426;2022-08-18T15:40:20;68.35;;;41.25;;